Time;durP1;ratioP1;P1;durP2;ratioP2;P2;SDS_P1;SDS_P2;PMS_P1;PMS_P2;Temp;Humidity;BMP_temperature;BMP_pressure;BME280_temperature;BME280_humidity;BME280_pressure;Samples;Min_cycle;Max_cycle;Signal;HPM_P1;HPM_P2
2023/10/11 00:00:58;;;;;;;9.35;2.83;;;;;;;;;;5008986;28;20037;-75
2023/10/11 00:05:55;;;;;;;13.80;3.40;;;;;;;;;;5034809;28;20056;-75
2023/10/11 00:08:29;;;;;;;10.38;3.00;;;;;;;;;;5029782;28;20052;-75
2023/10/11 00:10:58;;;;;;;9.27;3.25;;;;;;;;;;5021530;28;20046;-75
2023/10/11 00:13:32;;;;;;;8.90;3.35;;;;;;;;;;5035257;28;20037;-75
2023/10/11 00:16:07;;;;;;;8.82;3.17;;;;;;;;;;5025509;28;20042;-75
2023/10/11 00:18:43;;;;;;;9.13;3.20;;;;;;;;;;5025206;28;20045;-75
2023/10/11 00:21:11;;;;;;;10.60;3.22;;;;;;;;;;5035864;28;20461;-75
2023/10/11 00:23:41;;;;;;;10.93;3.20;;;;;;;;;;5027281;28;20041;-75
2023/10/11 00:26:08;;;;;;;9.90;3.30;;;;;;;;;;5029638;28;20037;-75
2023/10/11 00:28:38;;;;;;;8.05;3.30;;;;;;;;;;5026363;28;20132;-75
2023/10/11 00:31:11;;;;;;;13.13;3.13;;;;;;;;;;5025597;28;20041;-75
2023/10/11 00:33:39;;;;;;;7.15;3.13;;;;;;;;;;5024905;28;21794;-74
2023/10/11 00:36:06;;;;;;;7.63;3.05;;;;;;;;;;5035686;28;20033;-75
2023/10/11 00:38:46;;;;;;;13.10;3.80;;;;;;;;;;5032890;28;20219;-75
2023/10/11 00:41:15;;;;;;;9.32;3.03;;;;;;;;;;5024208;28;20041;-75
2023/10/11 00:43:55;;;;;;;7.63;3.13;;;;;;;;;;5021797;28;20392;-73
2023/10/11 00:46:27;;;;;;;9.82;3.10;;;;;;;;;;5025086;28;20445;-74
2023/10/11 00:49:00;;;;;;;8.35;3.05;;;;;;;;;;5028311;28;20043;-75
2023/10/11 00:51:31;;;;;;;10.20;3.55;;;;;;;;;;5031628;28;20120;-75
2023/10/11 00:54:02;;;;;;;7.82;2.85;;;;;;;;;;5030208;28;20052;-75
2023/10/11 00:56:32;;;;;;;7.43;3.20;;;;;;;;;;5041819;28;20115;-75
2023/10/11 00:59:08;;;;;;;8.43;3.63;;;;;;;;;;5025847;28;20080;-75
2023/10/11 01:01:39;;;;;;;10.18;3.10;;;;;;;;;;5039637;28;20053;-75
2023/10/11 01:04:13;;;;;;;9.82;3.45;;;;;;;;;;5028755;28;20041;-75
2023/10/11 01:06:40;;;;;;;8.95;3.10;;;;;;;;;;5023293;28;20046;-74
2023/10/11 01:09:28;;;;;;;10.30;3.40;;;;;;;;;;5017774;28;20046;-74
2023/10/11 01:11:54;;;;;;;9.90;3.50;;;;;;;;;;5023871;28;20058;-74
2023/10/11 01:14:24;;;;;;;12.90;3.53;;;;;;;;;;5004569;28;20049;-74
2023/10/11 01:16:53;;;;;;;8.98;3.45;;;;;;;;;;5024914;28;20049;-73
2023/10/11 01:19:23;;;;;;;9.02;3.25;;;;;;;;;;5026324;28;20508;-74
2023/10/11 01:21:53;;;;;;;9.77;3.30;;;;;;;;;;5006814;28;20049;-75
2023/10/11 01:24:20;;;;;;;7.63;3.03;;;;;;;;;;5020217;28;20053;-74
2023/10/11 01:26:48;;;;;;;9.32;3.70;;;;;;;;;;5023608;28;20100;-74
2023/10/11 01:29:16;;;;;;;6.18;2.60;;;;;;;;;;5028516;28;20138;-75
2023/10/11 01:31:43;;;;;;;9.65;3.40;;;;;;;;;;5027402;28;20076;-75
2023/10/11 01:34:14;;;;;;;8.68;3.10;;;;;;;;;;5047025;28;20418;-75
2023/10/11 01:36:44;;;;;;;9.50;3.45;;;;;;;;;;5006785;28;20099;-74
2023/10/11 01:39:11;;;;;;;9.20;3.75;;;;;;;;;;5022646;28;20057;-75
2023/10/11 01:41:42;;;;;;;9.35;3.33;;;;;;;;;;5023626;28;20045;-74
2023/10/11 01:44:09;;;;;;;9.57;3.38;;;;;;;;;;5023421;28;20044;-75
2023/10/11 01:46:39;;;;;;;6.90;2.97;;;;;;;;;;5007356;28;20042;-74
2023/10/11 01:49:10;;;;;;;12.80;3.28;;;;;;;;;;5027115;28;20037;-74
2023/10/11 01:51:46;;;;;;;8.70;3.10;;;;;;;;;;5026487;28;20191;-75
2023/10/11 01:54:15;;;;;;;8.15;3.25;;;;;;;;;;5026474;28;20049;-76
2023/10/11 01:56:41;;;;;;;8.93;3.08;;;;;;;;;;5028359;28;20037;-73
2023/10/11 01:59:12;;;;;;;12.52;4.15;;;;;;;;;;5032807;28;20124;-74
2023/10/11 02:01:39;;;;;;;9.80;3.80;;;;;;;;;;5027383;28;20060;-75
2023/10/11 02:04:18;;;;;;;11.27;3.42;;;;;;;;;;5041567;28;20098;-74
2023/10/11 02:06:47;;;;;;;8.25;3.35;;;;;;;;;;5031802;28;20291;-75
2023/10/11 02:09:20;;;;;;;12.57;3.80;;;;;;;;;;5035800;28;20053;-75
2023/10/11 02:11:52;;;;;;;10.82;3.30;;;;;;;;;;5037245;28;20778;-74
2023/10/11 02:14:21;;;;;;;10.10;3.47;;;;;;;;;;5031614;28;20050;-74
2023/10/11 02:16:47;;;;;;;6.38;3.17;;;;;;;;;;5020202;28;20049;-73
2023/10/11 02:19:15;;;;;;;11.10;3.25;;;;;;;;;;5032692;28;20060;-74
2023/10/11 02:21:45;;;;;;;9.18;2.92;;;;;;;;;;5040263;28;20049;-74
2023/10/11 02:24:15;;;;;;;7.95;3.25;;;;;;;;;;5041060;28;20099;-75
2023/10/11 02:26:49;;;;;;;11.90;3.92;;;;;;;;;;5029516;28;20511;-75
2023/10/11 02:29:20;;;;;;;11.75;3.40;;;;;;;;;;5031759;28;20098;-75
2023/10/11 02:31:50;;;;;;;10.55;2.67;;;;;;;;;;5025695;28;20668;-75
2023/10/11 02:34:18;;;;;;;10.50;3.60;;;;;;;;;;5032994;28;20049;-73
2023/10/11 02:36:56;;;;;;;12.75;2.97;;;;;;;;;;5037891;28;21177;-75
2023/10/11 02:39:31;;;;;;;10.73;3.40;;;;;;;;;;5028309;28;20418;-75
2023/10/11 02:41:59;;;;;;;;;;;;;;;;;;5027197;28;20049;-75
2023/10/11 02:44:26;;;;;;;9.13;3.10;;;;;;;;;;5045595;28;19964;-75
2023/10/11 02:46:53;;;;;;;9.05;3.17;;;;;;;;;;5041600;28;20632;-75
2023/10/11 02:49:20;;;;;;;7.70;3.28;;;;;;;;;;5035774;28;20055;-75
2023/10/11 02:51:52;;;;;;;9.20;3.50;;;;;;;;;;5032214;28;20061;-75
2023/10/11 02:54:20;;;;;;;7.38;2.78;;;;;;;;;;5028973;28;20095;-75
2023/10/11 02:56:46;;;;;;;8.98;3.10;;;;;;;;;;5021753;28;20044;-74
2023/10/11 02:59:19;;;;;;;10.63;3.03;;;;;;;;;;5035627;28;20049;-75
2023/10/11 03:01:59;;;;;;;7.80;2.55;;;;;;;;;;5031717;28;20043;-75
2023/10/11 03:04:41;;;;;;;11.07;2.80;;;;;;;;;;5032007;28;20231;-74
2023/10/11 03:07:12;;;;;;;12.40;2.72;;;;;;;;;;5028275;28;20052;-75
2023/10/11 03:09:42;;;;;;;10.82;3.40;;;;;;;;;;5028603;28;20049;-75
2023/10/11 03:12:24;;;;;;;8.48;3.13;;;;;;;;;;4988489;28;20065;-75
2023/10/11 03:14:54;;;;;;;8.55;3.05;;;;;;;;;;5013543;28;20658;-75
2023/10/11 03:17:22;;;;;;;7.75;2.88;;;;;;;;;;5013496;28;20598;-76
2023/10/11 03:19:49;;;;;;;11.13;3.13;;;;;;;;;;5015177;28;20508;-75
2023/10/11 03:22:19;;;;;;;9.52;3.00;;;;;;;;;;5007761;28;20038;-76
2023/10/11 03:24:54;;;;;;;9.65;2.95;;;;;;;;;;5007978;28;20092;-75
2023/10/11 03:27:23;;;;;;;10.32;3.38;;;;;;;;;;5026956;28;20046;-74
2023/10/11 03:29:53;;;;;;;10.85;2.83;;;;;;;;;;5027135;28;20049;-75
2023/10/11 03:32:24;;;;;;;6.00;2.80;;;;;;;;;;5032373;28;20056;-75
2023/10/11 03:34:51;;;;;;;11.77;2.92;;;;;;;;;;5038184;28;20110;-75
2023/10/11 03:37:20;;;;;;;8.88;3.30;;;;;;;;;;5032966;28;20518;-73
2023/10/11 03:39:56;;;;;;;8.95;2.85;;;;;;;;;;5045752;28;20679;-75
2023/10/11 03:45:27;;;;;;;6.53;1.58;;;;;;;;;;4993602;28;20084;-75
2023/10/11 03:47:56;;;;;;;8.07;3.28;;;;;;;;;;5011686;28;20080;-75
2023/10/11 03:50:32;;;;;;;12.85;2.95;;;;;;;;;;5017112;28;20049;-74
2023/10/11 03:53:07;;;;;;;12.27;2.75;;;;;;;;;;5013692;28;20061;-74
2023/10/11 03:55:34;;;;;;;9.45;3.05;;;;;;;;;;5016206;28;20042;-75
2023/10/11 03:58:00;;;;;;;8.60;3.13;;;;;;;;;;5018880;28;20441;-75
2023/10/11 04:00:29;;;;;;;11.10;3.15;;;;;;;;;;5018174;28;20084;-74
2023/10/11 04:03:04;;;;;;;9.25;2.95;;;;;;;;;;5017444;28;20048;-75
2023/10/11 04:05:35;;;;;;;12.32;2.83;;;;;;;;;;5017422;28;20431;-75
2023/10/11 04:08:05;;;;;;;7.32;2.78;;;;;;;;;;5007139;28;20041;-73
2023/10/11 04:10:42;;;;;;;9.05;2.80;;;;;;;;;;5017652;28;20057;-72
2023/10/11 04:13:09;;;;;;;8.60;2.97;;;;;;;;;;5010122;28;20124;-74
2023/10/11 04:15:40;;;;;;;10.35;3.28;;;;;;;;;;5006698;28;20042;-74
2023/10/11 04:18:14;;;;;;;8.98;2.80;;;;;;;;;;5007156;28;20101;-74
2023/10/11 04:20:51;;;;;;;6.93;2.92;;;;;;;;;;5012055;28;20049;-73
2023/10/11 04:23:24;;;;;;;6.68;2.67;;;;;;;;;;5009884;28;20041;-75
2023/10/11 04:25:51;;;;;;;3.50;1.50;;;;;;;;;;5015132;28;20037;-74
2023/10/11 04:28:17;;;;;;;14.85;3.00;;;;;;;;;;5020334;28;20057;-74
2023/10/11 04:30:44;;;;;;;12.45;3.08;;;;;;;;;;5019046;28;20041;-75
2023/10/11 04:33:13;;;;;;;8.35;2.72;;;;;;;;;;5019242;28;20541;-76
2023/10/11 04:35:43;;;;;;;8.95;2.60;;;;;;;;;;5042061;28;20053;-75
2023/10/11 04:38:12;;;;;;;7.70;2.88;;;;;;;;;;5017783;28;20499;-73
2023/10/11 04:40:47;;;;;;;8.55;3.10;;;;;;;;;;5005834;28;20054;-74
2023/10/11 04:45:51;;;;;;;6.65;2.40;;;;;;;;;;5006178;28;20042;-74
2023/10/11 04:48:33;;;;;;;9.65;2.95;;;;;;;;;;5015398;28;20045;-74
2023/10/11 04:51:04;;;;;;;11.88;3.50;;;;;;;;;;5013116;28;20243;-74
2023/10/11 04:53:54;;;;;;;7.68;3.25;;;;;;;;;;5013119;28;20456;-75
2023/10/11 04:59:16;;;;;;;7.15;3.00;;;;;;;;;;5017112;28;20105;-73
2023/10/11 05:04:15;;;;;;;8.70;2.90;;;;;;;;;;5018707;28;20041;-74
2023/10/11 05:06:43;;;;;;;6.72;2.58;;;;;;;;;;5018253;28;20042;-76
2023/10/11 05:09:21;;;;;;;9.95;3.40;;;;;;;;;;5018581;28;20048;-74
2023/10/11 05:11:53;;;;;;;6.25;3.10;;;;;;;;;;5008780;28;20049;-76
2023/10/11 05:14:28;;;;;;;7.57;3.00;;;;;;;;;;5014053;28;20496;-75
2023/10/11 05:19:55;;;;;;;10.20;2.70;;;;;;;;;;5015394;28;20648;-71
2023/10/11 05:32:58;;;;;;;8.70;2.70;;;;;;;;;;5005237;28;21241;-74
2023/10/11 05:52:16;;;;;;;9.32;2.95;;;;;;;;;;5010431;28;20067;-76
2023/10/11 05:54:43;;;;;;;6.90;2.72;;;;;;;;;;5011939;28;20163;-75
2023/10/11 05:57:13;;;;;;;7.03;2.20;;;;;;;;;;5012247;28;20038;-75
2023/10/11 05:59:42;;;;;;;7.93;2.30;;;;;;;;;;5017138;28;20366;-75
2023/10/11 06:02:18;;;;;;;5.60;2.65;;;;;;;;;;5011594;28;20987;-74
2023/10/11 06:04:45;;;;;;;5.70;2.83;;;;;;;;;;5004680;28;20165;-74
2023/10/11 06:07:13;;;;;;;7.80;2.67;;;;;;;;;;5030570;28;20049;-75
2023/10/11 06:09:45;;;;;;;8.63;2.80;;;;;;;;;;5014078;28;20042;-75
2023/10/11 06:12:22;;;;;;;7.32;2.70;;;;;;;;;;5012680;28;21610;-74
2023/10/11 06:14:50;;;;;;;7.18;2.65;;;;;;;;;;5014906;28;20052;-75
2023/10/11 06:17:21;;;;;;;10.02;2.97;;;;;;;;;;5021370;28;20412;-74
2023/10/11 06:19:53;;;;;;;10.18;2.78;;;;;;;;;;5010119;28;20053;-75
2023/10/11 06:22:21;;;;;;;4.57;2.05;;;;;;;;;;5017066;28;20565;-76
2023/10/11 06:24:49;;;;;;;7.88;2.70;;;;;;;;;;5007850;28;20045;-74
2023/10/11 06:30:06;;;;;;;7.18;2.75;;;;;;;;;;5013868;28;20041;-73
2023/10/11 06:32:35;;;;;;;5.35;2.50;;;;;;;;;;5018549;28;20050;-75
2023/10/11 06:35:05;;;;;;;5.78;2.35;;;;;;;;;;5016534;28;20045;-76
2023/10/11 06:37:35;;;;;;;7.53;2.83;;;;;;;;;;5015850;28;20554;-75
2023/10/11 06:42:31;;;;;;;11.18;2.90;;;;;;;;;;5020228;28;20054;-75
2023/10/11 06:44:59;;;;;;;5.50;2.38;;;;;;;;;;5036666;28;20045;-75
2023/10/11 06:47:27;;;;;;;6.15;2.10;;;;;;;;;;5036860;28;20080;-74
2023/10/11 06:49:55;;;;;;;9.85;2.83;;;;;;;;;;5031181;28;20045;-74
2023/10/11 06:52:25;;;;;;;7.03;2.53;;;;;;;;;;5033005;28;20045;-74
2023/10/11 06:57:39;;;;;;;;;;;;;;;;;;5042262;28;20515;-73
2023/10/11 07:00:12;;;;;;;6.70;2.30;;;;;;;;;;5032883;28;19921;-74
2023/10/11 07:02:46;;;;;;;7.57;2.58;;;;;;;;;;5038164;28;20041;-74
2023/10/11 07:05:17;;;;;;;8.30;2.50;;;;;;;;;;5041911;28;20059;-74
2023/10/11 07:07:52;;;;;;;7.13;2.40;;;;;;;;;;5032688;28;20846;-75
2023/10/11 07:10:28;;;;;;;7.75;2.90;;;;;;;;;;5035456;28;21717;-74
2023/10/11 07:13:05;;;;;;;6.93;2.30;;;;;;;;;;5029875;28;20041;-77
2023/10/11 07:15:40;;;;;;;6.50;2.50;;;;;;;;;;5036392;28;20041;-75
2023/10/11 07:18:11;;;;;;;6.20;2.80;;;;;;;;;;5029568;28;20057;-74
2023/10/11 07:20:48;;;;;;;9.55;2.53;;;;;;;;;;5024613;28;20444;-73
2023/10/11 07:23:21;;;;;;;7.40;2.60;;;;;;;;;;5021129;28;20046;-74
2023/10/11 07:25:49;;;;;;;8.30;2.65;;;;;;;;;;5013332;28;20551;-74
2023/10/11 07:28:26;;;;;;;8.85;2.58;;;;;;;;;;5022575;28;20049;-74
2023/10/11 07:30:53;;;;;;;8.00;2.70;;;;;;;;;;5030638;28;20121;-73
2023/10/11 07:33:19;;;;;;;10.57;2.80;;;;;;;;;;5012403;28;20069;-74
2023/10/11 07:35:46;;;;;;;8.45;2.92;;;;;;;;;;5014082;28;20046;-75
2023/10/11 07:38:14;;;;;;;6.22;2.53;;;;;;;;;;5009162;28;20512;-74
2023/10/11 07:40:47;;;;;;;6.82;2.78;;;;;;;;;;5014742;28;20041;-74
2023/10/11 07:43:16;;;;;;;6.47;2.55;;;;;;;;;;5014370;28;20046;-73
2023/10/11 07:45:48;;;;;;;6.47;2.35;;;;;;;;;;5028466;28;20526;-73
2023/10/11 07:48:16;;;;;;;12.25;2.30;;;;;;;;;;5001220;28;20045;-74
2023/10/11 07:50:46;;;;;;;9.35;2.33;;;;;;;;;;5012818;28;20436;-73
2023/10/11 07:53:13;;;;;;;10.90;3.03;;;;;;;;;;5038488;28;20108;-74
2023/10/11 07:55:45;;;;;;;6.88;2.47;;;;;;;;;;5027251;28;20136;-73
2023/10/11 07:58:15;;;;;;;8.75;2.50;;;;;;;;;;5027342;28;20083;-73
2023/10/11 08:00:42;;;;;;;6.00;2.38;;;;;;;;;;5025358;28;20061;-73
2023/10/11 08:03:11;;;;;;;8.77;2.72;;;;;;;;;;5027341;28;20042;-74
2023/10/11 08:05:50;;;;;;;6.38;2.53;;;;;;;;;;5027691;28;20048;-74
2023/10/11 08:08:20;;;;;;;7.88;2.88;;;;;;;;;;5029239;28;20103;-73
2023/10/11 08:10:52;;;;;;;7.82;2.60;;;;;;;;;;5030720;28;20048;-73
2023/10/11 08:13:25;;;;;;;6.40;2.45;;;;;;;;;;5032688;28;20045;-73
2023/10/11 08:15:59;;;;;;;5.68;2.47;;;;;;;;;;5026426;28;20073;-74
2023/10/11 08:18:26;;;;;;;8.90;2.92;;;;;;;;;;5017889;28;21427;-74
2023/10/11 08:20:53;;;;;;;6.53;2.72;;;;;;;;;;5012626;28;20041;-74
2023/10/11 08:23:29;;;;;;;9.25;2.55;;;;;;;;;;5011343;28;20041;-74
2023/10/11 08:25:57;;;;;;;8.68;2.60;;;;;;;;;;5028681;28;20197;-73
2023/10/11 08:28:34;;;;;;;10.10;2.70;;;;;;;;;;5027334;28;20104;-76
2023/10/11 08:31:01;;;;;;;6.80;2.80;;;;;;;;;;5009312;28;20143;-74
2023/10/11 08:33:31;;;;;;;9.35;2.67;;;;;;;;;;5016016;28;20427;-74
2023/10/11 08:35:58;;;;;;;7.72;2.55;;;;;;;;;;5005702;28;20037;-74
2023/10/11 08:38:25;;;;;;;9.43;2.67;;;;;;;;;;5013964;28;20703;-75
2023/10/11 08:40:58;;;;;;;7.43;2.67;;;;;;;;;;5010359;28;20042;-74
2023/10/11 08:43:34;;;;;;;9.40;2.90;;;;;;;;;;5000690;28;21617;-74
2023/10/11 08:46:05;;;;;;;8.75;3.00;;;;;;;;;;5011758;28;20045;-75
2023/10/11 08:48:38;;;;;;;7.38;2.53;;;;;;;;;;5015958;28;20053;-75
2023/10/11 08:51:11;;;;;;;7.60;2.42;;;;;;;;;;5006030;28;20092;-75
2023/10/11 08:53:45;;;;;;;5.90;2.40;;;;;;;;;;5000568;28;20046;-75
2023/10/11 08:56:17;;;;;;;;;;;;;;;;;;5012488;28;20116;-74
2023/10/11 08:58:51;;;;;;;7.15;2.55;;;;;;;;;;5012659;28;19926;-74
2023/10/11 09:01:18;;;;;;;7.45;2.63;;;;;;;;;;5010582;28;20050;-74
2023/10/11 09:04:01;;;;;;;7.80;2.40;;;;;;;;;;5011639;28;20069;-75
2023/10/11 09:06:30;;;;;;;8.45;2.38;;;;;;;;;;5020374;28;20626;-74
2023/10/11 09:09:00;;;;;;;7.35;2.63;;;;;;;;;;5013085;28;21293;-75
2023/10/11 09:11:31;;;;;;;7.47;2.40;;;;;;;;;;5012098;28;21233;-74
2023/10/11 09:14:22;;;;;;;5.95;2.50;;;;;;;;;;5003988;28;20041;-75
2023/10/11 09:16:50;;;;;;;6.68;2.47;;;;;;;;;;5029906;28;20076;-75
2023/10/11 09:19:19;;;;;;;6.10;2.28;;;;;;;;;;5022097;28;20050;-75
2023/10/11 09:22:04;;;;;;;8.48;2.60;;;;;;;;;;5023873;28;20072;-75
2023/10/11 09:24:55;;;;;;;7.45;2.50;;;;;;;;;;5027571;28;20049;-75
2023/10/11 09:27:18;;;;;;;6.15;2.53;;;;;;;;;;5029590;28;20073;-73
2023/10/11 09:29:49;;;;;;;9.48;2.67;;;;;;;;;;5040679;28;20561;-74
2023/10/11 09:32:19;;;;;;;5.65;2.47;;;;;;;;;;5032446;28;20520;-75
2023/10/11 09:34:46;;;;;;;6.82;2.60;;;;;;;;;;5031700;28;20044;-75
2023/10/11 09:37:14;;;;;;;7.28;2.30;;;;;;;;;;5037176;28;20078;-73
2023/10/11 09:39:41;;;;;;;6.65;2.70;;;;;;;;;;5024008;28;20052;-74
2023/10/11 09:42:11;;;;;;;7.88;2.47;;;;;;;;;;5026019;28;20140;-74
2023/10/11 09:44:40;;;;;;;7.00;2.50;;;;;;;;;;5024649;28;20057;-74
2023/10/11 09:47:07;;;;;;;6.05;2.22;;;;;;;;;;5021464;28;20040;-74
2023/10/11 09:49:41;;;;;;;7.85;2.63;;;;;;;;;;5031196;28;20041;-74
2023/10/11 09:52:09;;;;;;;5.65;2.50;;;;;;;;;;5042581;28;20062;-74
2023/10/11 09:54:37;;;;;;;6.45;2.47;;;;;;;;;;5027714;28;20065;-75
2023/10/11 09:57:04;;;;;;;5.95;2.13;;;;;;;;;;5025571;28;20053;-75
2023/10/11 09:59:37;;;;;;;6.18;2.50;;;;;;;;;;5030781;28;20365;-74
2023/10/11 10:02:07;;;;;;;5.90;2.58;;;;;;;;;;5028817;28;20487;-74
2023/10/11 10:04:52;;;;;;;6.45;3.00;;;;;;;;;;5026947;28;20751;-75
2023/10/11 10:10:07;;;;;;;9.38;2.55;;;;;;;;;;5020642;28;20050;-74
2023/10/11 10:12:40;;;;;;;6.97;2.60;;;;;;;;;;5022778;28;20041;-75
2023/10/11 10:15:08;;;;;;;7.70;2.50;;;;;;;;;;5015948;28;21268;-76
2023/10/11 10:17:35;;;;;;;6.60;2.70;;;;;;;;;;5021398;28;20056;-74
2023/10/11 10:20:20;;;;;;;6.97;2.50;;;;;;;;;;5025130;28;20496;-73
2023/10/11 10:23:07;;;;;;;10.68;2.50;;;;;;;;;;5024196;28;20045;-74
2023/10/11 10:25:34;;;;;;;4.97;2.53;;;;;;;;;;5028670;28;20324;-75
2023/10/11 10:28:00;;;;;;;7.03;2.67;;;;;;;;;;5032041;28;20045;-75
2023/10/11 10:30:28;;;;;;;5.95;2.50;;;;;;;;;;5028501;28;20049;-74
2023/10/11 10:33:18;;;;;;;7.32;2.35;;;;;;;;;;5037159;28;20041;-74
2023/10/11 10:35:45;;;;;;;9.40;2.13;;;;;;;;;;5023772;28;20423;-75
2023/10/11 10:38:12;;;;;;;6.88;2.80;;;;;;;;;;5033351;28;20511;-74
2023/10/11 10:40:42;;;;;;;5.72;2.60;;;;;;;;;;5033567;28;20107;-75
2023/10/11 10:43:14;;;;;;;6.00;2.50;;;;;;;;;;5037656;28;20045;-74
2023/10/11 10:45:40;;;;;;;7.35;2.45;;;;;;;;;;5032050;28;20037;-77
2023/10/11 10:48:11;;;;;;;7.82;2.40;;;;;;;;;;5040925;28;20037;-74
2023/10/11 10:50:47;;;;;;;9.38;2.80;;;;;;;;;;5025860;28;20044;-75
2023/10/11 10:53:16;;;;;;;;;;;;;;;;;;5029231;28;20049;-74
2023/10/11 10:55:44;;;;;;;8.88;2.90;;;;;;;;;;5051344;28;20002;-75
2023/10/11 10:58:20;;;;;;;5.90;2.63;;;;;;;;;;5020977;28;20041;-75
2023/10/11 11:00:53;;;;;;;6.90;2.45;;;;;;;;;;5022368;28;20720;-75
2023/10/11 11:03:20;;;;;;;6.28;2.40;;;;;;;;;;5027511;28;20038;-75
2023/10/11 11:06:00;;;;;;;6.20;2.70;;;;;;;;;;5029294;28;20410;-76
2023/10/11 11:08:31;;;;;;;6.55;2.45;;;;;;;;;;5033429;28;20064;-75
2023/10/11 11:11:18;;;;;;;4.18;2.03;;;;;;;;;;5004869;28;20187;-74
2023/10/11 11:13:47;;;;;;;5.22;2.15;;;;;;;;;;5025977;28;22248;-74
2023/10/11 11:16:15;;;;;;;6.50;2.53;;;;;;;;;;5031751;28;20065;-73
2023/10/11 11:18:44;;;;;;;6.60;2.67;;;;;;;;;;5034692;28;20507;-74
2023/10/11 11:21:20;;;;;;;6.95;2.53;;;;;;;;;;5039438;28;20051;-75
2023/10/11 11:23:50;;;;;;;10.05;2.30;;;;;;;;;;5035664;28;20052;-75
2023/10/11 11:26:18;;;;;;;6.72;2.53;;;;;;;;;;5032632;28;20045;-75
2023/10/11 11:28:51;;;;;;;4.68;2.30;;;;;;;;;;5034757;28;20051;-75
2023/10/11 11:34:12;;;;;;;5.22;2.55;;;;;;;;;;5031777;28;20044;-74
2023/10/11 11:36:42;;;;;;;7.72;2.47;;;;;;;;;;5013894;28;20140;-74
2023/10/11 11:39:25;;;;;;;5.40;2.38;;;;;;;;;;5023187;28;20041;-75
2023/10/11 11:41:53;;;;;;;8.75;2.30;;;;;;;;;;5028535;28;22028;-75
2023/10/11 11:44:20;;;;;;;5.65;2.60;;;;;;;;;;5044939;28;20383;-74
2023/10/11 11:46:48;;;;;;;8.73;2.40;;;;;;;;;;5028896;28;20415;-75
2023/10/11 11:49:17;;;;;;;7.90;2.33;;;;;;;;;;5035647;28;20979;-75
2023/10/11 11:51:44;;;;;;;8.23;2.20;;;;;;;;;;5034255;28;20552;-75
2023/10/11 11:54:17;;;;;;;8.10;2.45;;;;;;;;;;5027857;28;20060;-74
2023/10/11 11:56:45;;;;;;;7.55;2.33;;;;;;;;;;5019822;28;21672;-75
2023/10/11 11:59:20;;;;;;;6.57;2.20;;;;;;;;;;5025804;28;20041;-75
2023/10/11 12:01:52;;;;;;;6.95;2.50;;;;;;;;;;5008624;28;20045;-75
2023/10/11 12:04:20;;;;;;;4.45;2.20;;;;;;;;;;5014502;28;20474;-75
2023/10/11 12:06:48;;;;;;;7.68;2.97;;;;;;;;;;5014440;28;20046;-75
2023/10/11 12:09:21;;;;;;;9.40;2.38;;;;;;;;;;5022013;28;21061;-75
2023/10/11 12:11:53;;;;;;;7.22;2.70;;;;;;;;;;5026303;28;20056;-74
2023/10/11 12:14:23;;;;;;;7.95;2.88;;;;;;;;;;5019448;28;20055;-75
2023/10/11 12:16:50;;;;;;;6.28;2.10;;;;;;;;;;5008431;28;20057;-75
2023/10/11 12:19:17;;;;;;;6.35;2.10;;;;;;;;;;5017784;28;20057;-75
2023/10/11 12:21:43;;;;;;;11.10;2.78;;;;;;;;;;5010306;28;20096;-76
2023/10/11 12:24:11;;;;;;;7.38;2.40;;;;;;;;;;5016893;28;20057;-74
2023/10/11 12:26:59;;;;;;;8.50;2.00;;;;;;;;;;5009570;28;20103;-75
2023/10/11 12:29:26;;;;;;;5.38;2.13;;;;;;;;;;5015179;28;20400;-75
2023/10/11 12:31:54;;;;;;;7.32;2.67;;;;;;;;;;5007781;28;20108;-75
2023/10/11 12:34:24;;;;;;;8.93;2.53;;;;;;;;;;5007468;28;20042;-75
2023/10/11 12:36:55;;;;;;;4.03;1.90;;;;;;;;;;5023123;28;21220;-74
2023/10/11 12:39:29;;;;;;;6.32;2.13;;;;;;;;;;5018916;28;20715;-76
2023/10/11 12:41:59;;;;;;;9.68;2.00;;;;;;;;;;5025945;28;20142;-76
2023/10/11 12:44:28;;;;;;;9.10;2.30;;;;;;;;;;5005808;28;20046;-75
2023/10/11 12:46:58;;;;;;;5.68;2.17;;;;;;;;;;5000786;28;20048;-73
2023/10/11 12:49:27;;;;;;;6.22;2.25;;;;;;;;;;5006280;28;20046;-74
2023/10/11 12:51:54;;;;;;;6.68;2.78;;;;;;;;;;5017477;28;20057;-76
2023/10/11 12:54:22;;;;;;;6.63;2.17;;;;;;;;;;5005122;28;20080;-75
2023/10/11 12:56:49;;;;;;;7.00;2.22;;;;;;;;;;5011148;28;20765;-76
2023/10/11 12:59:19;;;;;;;6.78;2.17;;;;;;;;;;5006408;28;20125;-75
2023/10/11 13:01:57;;;;;;;5.18;2.08;;;;;;;;;;5001214;28;20046;-75
2023/10/11 13:04:26;;;;;;;5.60;2.53;;;;;;;;;;5010354;28;20430;-76
2023/10/11 13:06:52;;;;;;;8.73;1.75;;;;;;;;;;5008859;28;21474;-76
2023/10/11 13:09:21;;;;;;;5.97;2.10;;;;;;;;;;5009630;28;20049;-76
2023/10/11 13:11:48;;;;;;;7.50;2.38;;;;;;;;;;5006508;28;20049;-75
2023/10/11 13:14:19;;;;;;;6.07;2.10;;;;;;;;;;5009829;28;20104;-74
2023/10/11 13:16:51;;;;;;;8.23;2.22;;;;;;;;;;5013024;28;20054;-76
2023/10/11 13:19:18;;;;;;;5.68;2.30;;;;;;;;;;5011871;28;20056;-79
2023/10/11 13:21:48;;;;;;;5.68;2.25;;;;;;;;;;4997475;28;20058;-79
2023/10/11 13:24:27;;;;;;;6.10;2.30;;;;;;;;;;5015980;28;20065;-77
2023/10/11 13:26:58;;;;;;;5.07;2.40;;;;;;;;;;5003862;28;20049;-78
2023/10/11 13:29:27;;;;;;;6.97;2.38;;;;;;;;;;5038059;28;20461;-82
2023/10/11 13:31:55;;;;;;;5.07;1.98;;;;;;;;;;5034950;28;20708;-78
2023/10/11 13:34:23;;;;;;;5.32;2.17;;;;;;;;;;5023098;28;20041;-81
2023/10/11 13:36:51;;;;;;;6.45;2.28;;;;;;;;;;5029269;28;20071;-76
2023/10/11 13:39:26;;;;;;;8.00;2.30;;;;;;;;;;5022948;28;20137;-79
2023/10/11 13:42:04;;;;;;;5.43;2.20;;;;;;;;;;5023837;28;20465;-78
2023/10/11 13:44:36;;;;;;;7.65;2.70;;;;;;;;;;5005324;28;21220;-75
2023/10/11 13:47:03;;;;;;;4.38;2.13;;;;;;;;;;5011770;28;20042;-74
2023/10/11 13:49:33;;;;;;;6.75;2.10;;;;;;;;;;5001494;28;20080;-75
2023/10/11 13:52:03;;;;;;;6.05;2.40;;;;;;;;;;5018913;28;20037;-75
2023/10/11 13:54:45;;;;;;;4.70;2.00;;;;;;;;;;5012232;28;20535;-74
2023/10/11 13:57:17;;;;;;;5.57;2.00;;;;;;;;;;5032851;28;20034;-75
2023/10/11 13:59:47;;;;;;;8.45;2.50;;;;;;;;;;5045973;28;20065;-75
2023/10/11 14:02:33;;;;;;;;;;;;;;;;;;;;;
2023/10/11 14:10:01;;;;;;;10.77;2.70;;;;;;;;;;5019721;28;20688;-76
2023/10/11 14:12:34;;;;;;;7.80;2.42;;;;;;;;;;5028775;28;20048;-75
2023/10/11 14:15:07;;;;;;;6.63;2.30;;;;;;;;;;5026140;28;20075;-75
2023/10/11 14:17:38;;;;;;;6.30;2.38;;;;;;;;;;5015782;28;20833;-75
2023/10/11 14:20:05;;;;;;;5.57;2.50;;;;;;;;;;5015472;28;20048;-75
2023/10/11 14:22:32;;;;;;;5.93;2.60;;;;;;;;;;5009001;28;20042;-75
2023/10/11 14:24:59;;;;;;;9.27;2.63;;;;;;;;;;5019913;28;20049;-74
2023/10/11 14:27:26;;;;;;;7.15;2.42;;;;;;;;;;5013030;28;20433;-76
2023/10/11 14:29:53;;;;;;;6.55;2.33;;;;;;;;;;5009828;28;20046;-75
2023/10/11 14:32:20;;;;;;;8.13;2.40;;;;;;;;;;5007345;28;20066;-75
2023/10/11 14:34:46;;;;;;;7.88;2.47;;;;;;;;;;5012586;28;20041;-75
2023/10/11 14:37:19;;;;;;;7.70;2.45;;;;;;;;;;5005746;28;20477;-75
2023/10/11 14:39:49;;;;;;;6.85;2.30;;;;;;;;;;5011547;28;20637;-75
2023/10/11 14:42:16;;;;;;;5.88;2.22;;;;;;;;;;5018404;28;20045;-75
2023/10/11 14:44:43;;;;;;;7.93;2.45;;;;;;;;;;5013720;28;20073;-75
2023/10/11 14:47:13;;;;;;;9.98;3.08;;;;;;;;;;5013961;28;20172;-75
2023/10/11 14:49:40;;;;;;;6.57;2.25;;;;;;;;;;5015081;28;20049;-75
2023/10/11 14:52:10;;;;;;;9.50;2.38;;;;;;;;;;5013054;28;20133;-75
2023/10/11 14:54:39;;;;;;;12.45;2.92;;;;;;;;;;5020086;28;20546;-74
2023/10/11 14:57:06;;;;;;;6.05;2.10;;;;;;;;;;5008738;28;20057;-75
2023/10/11 14:59:35;;;;;;;4.50;2.03;;;;;;;;;;5019159;28;20061;-75
2023/10/11 15:02:02;;;;;;;7.85;2.28;;;;;;;;;;5010969;28;20354;-75
2023/10/11 15:04:29;;;;;;;6.75;2.17;;;;;;;;;;5007795;28;20060;-75
2023/10/11 15:06:56;;;;;;;8.75;2.60;;;;;;;;;;5008885;28;20072;-75
2023/10/11 15:09:24;;;;;;;5.10;2.08;;;;;;;;;;5008844;28;20034;-74
2023/10/11 15:11:51;;;;;;;6.70;2.25;;;;;;;;;;5014645;28;20540;-75
2023/10/11 15:14:19;;;;;;;6.80;2.30;;;;;;;;;;5014114;28;20044;-75
2023/10/11 15:16:46;;;;;;;5.38;2.13;;;;;;;;;;5014656;28;20436;-75
2023/10/11 15:19:14;;;;;;;5.15;2.10;;;;;;;;;;5012056;28;20101;-75
2023/10/11 15:21:41;;;;;;;8.10;2.33;;;;;;;;;;5013850;28;20046;-75
2023/10/11 15:24:08;;;;;;;7.97;2.33;;;;;;;;;;5007136;28;20030;-74
2023/10/11 15:26:35;;;;;;;5.68;2.00;;;;;;;;;;5006006;28;20691;-75
2023/10/11 15:29:03;;;;;;;6.00;2.45;;;;;;;;;;5017535;28;20041;-75
2023/10/11 15:31:30;;;;;;;8.50;2.47;;;;;;;;;;5004445;28;20047;-75
2023/10/11 15:33:58;;;;;;;6.63;2.80;;;;;;;;;;5004584;28;20041;-75
2023/10/11 15:36:30;;;;;;;8.45;2.55;;;;;;;;;;5002136;28;20401;-74
2023/10/11 15:38:56;;;;;;;8.88;2.22;;;;;;;;;;5002257;28;20104;-75
2023/10/11 15:41:23;;;;;;;12.75;2.90;;;;;;;;;;5006648;28;20049;-74
2023/10/11 15:43:50;;;;;;;9.95;2.50;;;;;;;;;;5008998;28;20073;-74
2023/10/11 15:46:21;;;;;;;5.10;2.22;;;;;;;;;;5011644;28;20140;-73
2023/10/11 15:48:49;;;;;;;9.88;3.03;;;;;;;;;;5009902;28;20045;-75
2023/10/11 15:51:19;;;;;;;8.82;2.63;;;;;;;;;;5016052;28;20527;-74
2023/10/11 15:53:45;;;;;;;10.02;2.10;;;;;;;;;;5006043;28;20451;-74
2023/10/11 15:56:13;;;;;;;5.10;2.30;;;;;;;;;;5008072;28;20042;-70
2023/10/11 15:58:40;;;;;;;8.65;2.35;;;;;;;;;;5003443;28;20719;-76
2023/10/11 16:01:08;;;;;;;6.13;2.42;;;;;;;;;;4984968;28;20058;-77
2023/10/11 16:03:39;;;;;;;8.35;2.55;;;;;;;;;;5007478;28;20374;-76
2023/10/11 16:06:07;;;;;;;11.00;2.42;;;;;;;;;;5011970;28;20101;-77